TimePST,TemperatureF,Dew PointF,Humidity,Sea Level PressureIn,VisibilityMPH,Wind Direction,Wind SpeedMPH,Gust SpeedMPH,PrecipitationIn,Events,Conditions,WindDirDegrees,DateUTC
12:53 AM,42.1,39.0,89,30.14,10.0,SSE,3.5,-,N/A,,Overcast,160,2013-11-04 08:53:00
1:53 AM,42.1,39.0,89,30.15,10.0,East,3.5,-,0.00,Rain,Light Rain,80,2013-11-04 09:53:00
2:53 AM,39.9,37.9,93,30.16,10.0,SE,3.5,-,0.00,,Clear,130,2013-11-04 10:53:00
3:53 AM,39.0,37.9,96,30.16,10.0,Calm,Calm,-,N/A,,Scattered Clouds,0,2013-11-04 11:53:00
4:53 AM,37.9,37.0,97,30.17,9.0,Calm,Calm,-,N/A,,Clear,0,2013-11-04 12:53:00
5:28 AM,37.4,37.4,100,30.16,8.0,Calm,Calm,-,N/A,,Scattered Clouds,0,2013-11-04 13:28:00
5:37 AM,37.4,37.4,100,30.17,9.0,Calm,Calm,-,N/A,,Mostly Cloudy,0,2013-11-04 13:37:00
5:53 AM,37.0,37.0,100,30.19,9.0,Calm,Calm,-,N/A,,Mostly Cloudy,0,2013-11-04 13:53:00
6:05 AM,37.4,35.6,93,30.17,10.0,Calm,Calm,-,N/A,,Scattered Clouds,0,2013-11-04 14:05:00
6:14 AM,37.4,35.6,93,30.17,9.0,Calm,Calm,-,N/A,,Mostly Cloudy,0,2013-11-04 14:14:00
6:31 AM,37.4,35.6,93,30.17,10.0,Calm,Calm,-,N/A,,Overcast,0,2013-11-04 14:31:00
6:53 AM,37.9,37.0,97,30.19,8.0,Calm,Calm,-,N/A,,Scattered Clouds,0,2013-11-04 14:53:00
7:53 AM,37.9,37.0,97,30.20,8.0,Calm,Calm,-,N/A,,Clear,0,2013-11-04 15:53:00
8:53 AM,41.0,39.0,93,30.20,9.0,Calm,Calm,-,N/A,,Clear,0,2013-11-04 16:53:00
9:53 AM,43.0,39.9,89,30.21,10.0,NW,4.6,-,N/A,,Clear,320,2013-11-04 17:53:00
10:53 AM,45.0,39.9,82,30.21,10.0,NNW,4.6,-,N/A,,Clear,330,2013-11-04 18:53:00
11:53 AM,46.9,39.9,77,30.20,10.0,NNW,4.6,-,N/A,,Clear,330,2013-11-04 19:53:00
12:53 PM,48.0,36.0,63,30.18,10.0,NW,3.5,-,N/A,,Clear,320,2013-11-04 20:53:00
1:53 PM,48.9,36.0,61,30.17,10.0,NW,4.6,-,N/A,,Clear,320,2013-11-04 21:53:00
2:53 PM,48.9,35.1,59,30.16,10.0,Calm,Calm,-,N/A,,Clear,0,2013-11-04 22:53:00
3:53 PM,48.9,35.1,59,30.17,10.0,NW,3.5,-,N/A,,Scattered Clouds,310,2013-11-04 23:53:00
4:53 PM,48.9,35.1,59,30.16,10.0,Calm,Calm,-,N/A,,Overcast,0,2013-11-05 00:53:00
5:53 PM,48.9,36.0,61,30.16,10.0,Calm,Calm,-,N/A,,Overcast,0,2013-11-05 01:53:00
6:53 PM,46.9,37.0,68,30.13,10.0,Calm,Calm,-,N/A,,Overcast,0,2013-11-05 02:53:00
7:53 PM,46.9,36.0,66,30.13,10.0,Calm,Calm,-,N/A,,Overcast,0,2013-11-05 03:53:00
8:53 PM,46.0,37.9,73,30.12,10.0,SSE,4.6,-,0.00,Rain,Light Rain,160,2013-11-05 04:53:00
9:53 PM,45.0,39.9,82,30.12,10.0,SSE,3.5,-,0.01,,Overcast,150,2013-11-05 05:53:00
10:53 PM,45.0,39.9,82,30.10,10.0,South,4.6,-,0.00,,Overcast,170,2013-11-05 06:53:00
11:53 PM,45.0,39.9,82,30.07,10.0,Calm,Calm,-,0.00,,Overcast,0,2013-11-05 07:53:00